sensor_id;sensor_type;location;lat;lon;timestamp;temperature;humidity
9768;DHT22;4923;52.520;13.494;2023-04-01T00:02:04;10.20;1.00
9768;DHT22;4923;52.520;13.494;2023-04-01T00:04:50;10.20;1.00
9768;DHT22;4923;52.520;13.494;2023-04-01T00:07:38;10.20;1.00
9768;DHT22;4923;52.520;13.494;2023-04-01T00:10:25;10.20;1.00
9768;DHT22;4923;52.520;13.494;2023-04-01T00:13:12;10.20;1.00
9768;DHT22;4923;52.520;13.494;2023-04-01T00:15:59;10.20;99.90
9768;DHT22;4923;52.520;13.494;2023-04-01T00:18:49;10.20;1.00
9768;DHT22;4923;52.520;13.494;2023-04-01T00:21:36;10.20;1.00
9768;DHT22;4923;52.520;13.494;2023-04-01T00:24:23;10.20;1.00
9768;DHT22;4923;52.520;13.494;2023-04-01T00:27:10;10.20;99.90
9768;DHT22;4923;52.520;13.494;2023-04-01T00:29:57;10.20;39.40
9768;DHT22;4923;52.520;13.494;2023-04-01T00:32:43;10.20;99.90
9768;DHT22;4923;52.520;13.494;2023-04-01T00:35:32;10.20;99.90
9768;DHT22;4923;52.520;13.494;2023-04-01T00:38:19;10.20;99.90
9768;DHT22;4923;52.520;13.494;2023-04-01T00:41:06;10.20;99.90
9768;DHT22;4923;52.520;13.494;2023-04-01T00:44:14;10.20;99.90
9768;DHT22;4923;52.520;13.494;2023-04-01T00:47:01;10.20;99.90
9768;DHT22;4923;52.520;13.494;2023-04-01T00:49:51;10.20;99.90
9768;DHT22;4923;52.520;13.494;2023-04-01T00:52:39;10.20;1.00
9768;DHT22;4923;52.520;13.494;2023-04-01T00:55:28;10.20;2.60
9768;DHT22;4923;52.520;13.494;2023-04-01T00:58:18;10.20;1.00
9768;DHT22;4923;52.520;13.494;2023-04-01T01:01:08;10.20;1.00
9768;DHT22;4923;52.520;13.494;2023-04-01T01:03:56;10.20;1.00
9768;DHT22;4923;52.520;13.494;2023-04-01T01:06:46;10.20;99.90
9768;DHT22;4923;52.520;13.494;2023-04-01T01:09:45;10.20;99.90
9768;DHT22;4923;52.520;13.494;2023-04-01T01:12:37;10.30;1.00
9768;DHT22;4923;52.520;13.494;2023-04-01T01:15:29;10.30;1.00
9768;DHT22;4923;52.520;13.494;2023-04-01T01:18:21;10.30;1.00
9768;DHT22;4923;52.520;13.494;2023-04-01T01:21:38;10.30;1.00
9768;DHT22;4923;52.520;13.494;2023-04-01T01:24:41;10.30;1.00
9768;DHT22;4923;52.520;13.494;2023-04-01T01:27:29;10.30;1.00
9768;DHT22;4923;52.520;13.494;2023-04-01T01:30:31;10.30;1.00
9768;DHT22;4923;52.520;13.494;2023-04-01T01:33:34;10.30;1.00
9768;DHT22;4923;52.520;13.494;2023-04-01T01:36:25;10.30;1.00
9768;DHT22;4923;52.520;13.494;2023-04-01T01:39:13;10.30;1.00
9768;DHT22;4923;52.520;13.494;2023-04-01T01:42:03;10.30;1.00
9768;DHT22;4923;52.520;13.494;2023-04-01T01:44:52;10.30;1.00
9768;DHT22;4923;52.520;13.494;2023-04-01T01:47:41;10.30;1.00
9768;DHT22;4923;52.520;13.494;2023-04-01T01:50:28;10.30;1.00
9768;DHT22;4923;52.520;13.494;2023-04-01T01:53:17;10.30;1.00
9768;DHT22;4923;52.520;13.494;2023-04-01T01:56:04;10.40;1.00
9768;DHT22;4923;52.520;13.494;2023-04-01T01:58:55;10.40;1.00
9768;DHT22;4923;52.520;13.494;2023-04-01T02:01:45;10.40;38.70
9768;DHT22;4923;52.520;13.494;2023-04-01T02:04:34;10.30;99.90
9768;DHT22;4923;52.520;13.494;2023-04-01T02:07:23;10.40;1.00
9768;DHT22;4923;52.520;13.494;2023-04-01T02:10:13;10.40;1.00
9768;DHT22;4923;52.520;13.494;2023-04-01T02:13:05;10.40;1.00
9768;DHT22;4923;52.520;13.494;2023-04-01T02:15:55;10.40;99.90
9768;DHT22;4923;52.520;13.494;2023-04-01T02:18:44;10.40;99.90
9768;DHT22;4923;52.520;13.494;2023-04-01T02:21:32;10.40;1.00
9768;DHT22;4923;52.520;13.494;2023-04-01T02:24:20;10.30;99.90
9768;DHT22;4923;52.520;13.494;2023-04-01T02:27:11;10.30;1.00
9768;DHT22;4923;52.520;13.494;2023-04-01T02:29:58;10.30;40.20
9768;DHT22;4923;52.520;13.494;2023-04-01T02:32:45;10.20;1.00
9768;DHT22;4923;52.520;13.494;2023-04-01T02:35:34;10.10;1.00
9768;DHT22;4923;52.520;13.494;2023-04-01T02:38:21;10.10;1.00
9768;DHT22;4923;52.520;13.494;2023-04-01T02:41:09;10.10;1.00
9768;DHT22;4923;52.520;13.494;2023-04-01T02:43:57;10.20;1.00
9768;DHT22;4923;52.520;13.494;2023-04-01T02:46:44;10.10;99.90
9768;DHT22;4923;52.520;13.494;2023-04-01T02:49:31;10.10;99.90
9768;DHT22;4923;52.520;13.494;2023-04-01T02:52:18;10.00;99.90
9768;DHT22;4923;52.520;13.494;2023-04-01T02:55:06;10.00;1.00
9768;DHT22;4923;52.520;13.494;2023-04-01T02:57:53;10.00;99.90
9768;DHT22;4923;52.520;13.494;2023-04-01T03:00:41;10.00;99.90
9768;DHT22;4923;52.520;13.494;2023-04-01T03:03:28;10.10;99.90
9768;DHT22;4923;52.520;13.494;2023-04-01T03:06:16;10.10;1.00
9768;DHT22;4923;52.520;13.494;2023-04-01T03:09:03;10.10;1.00
9768;DHT22;4923;52.520;13.494;2023-04-01T03:11:50;10.20;1.00
9768;DHT22;4923;52.520;13.494;2023-04-01T03:14:37;10.20;1.00
9768;DHT22;4923;52.520;13.494;2023-04-01T03:17:25;10.20;99.90
9768;DHT22;4923;52.520;13.494;2023-04-01T03:20:13;10.20;99.90
9768;DHT22;4923;52.520;13.494;2023-04-01T03:23:00;10.30;99.90
9768;DHT22;4923;52.520;13.494;2023-04-01T03:25:47;10.20;99.90
9768;DHT22;4923;52.520;13.494;2023-04-01T03:28:34;10.20;99.90
9768;DHT22;4923;52.520;13.494;2023-04-01T03:31:22;10.20;99.90
9768;DHT22;4923;52.520;13.494;2023-04-01T03:34:10;10.20;1.00
9768;DHT22;4923;52.520;13.494;2023-04-01T03:36:57;10.20;99.90
9768;DHT22;4923;52.520;13.494;2023-04-01T03:39:44;10.20;1.00
9768;DHT22;4923;52.520;13.494;2023-04-01T03:42:31;10.30;99.90
9768;DHT22;4923;52.520;13.494;2023-04-01T03:45:18;10.20;99.90
9768;DHT22;4923;52.520;13.494;2023-04-01T03:48:05;10.20;99.90
9768;DHT22;4923;52.520;13.494;2023-04-01T03:50:53;10.30;99.90
9768;DHT22;4923;52.520;13.494;2023-04-01T03:53:40;10.30;1.00
9768;DHT22;4923;52.520;13.494;2023-04-01T03:56:27;10.30;99.90
9768;DHT22;4923;52.520;13.494;2023-04-01T03:59:14;10.30;1.00
9768;DHT22;4923;52.520;13.494;2023-04-01T04:02:00;10.20;99.90
9768;DHT22;4923;52.520;13.494;2023-04-01T04:04:47;10.30;99.90
9768;DHT22;4923;52.520;13.494;2023-04-01T04:07:36;10.30;1.00
9768;DHT22;4923;52.520;13.494;2023-04-01T04:10:23;10.40;1.00
9768;DHT22;4923;52.520;13.494;2023-04-01T04:13:10;10.40;99.90
9768;DHT22;4923;52.520;13.494;2023-04-01T04:15:58;10.30;1.00
9768;DHT22;4923;52.520;13.494;2023-04-01T04:18:48;10.30;1.00
9768;DHT22;4923;52.520;13.494;2023-04-01T04:21:36;10.40;99.90
9768;DHT22;4923;52.520;13.494;2023-04-01T04:24:24;10.40;99.90
9768;DHT22;4923;52.520;13.494;2023-04-01T04:27:11;10.40;1.00
9768;DHT22;4923;52.520;13.494;2023-04-01T04:29:58;10.40;1.00
9768;DHT22;4923;52.520;13.494;2023-04-01T04:32:45;10.40;54.50
9768;DHT22;4923;52.520;13.494;2023-04-01T04:35:32;10.30;93.00
9768;DHT22;4923;52.520;13.494;2023-04-01T04:38:19;10.30;1.00
9768;DHT22;4923;52.520;13.494;2023-04-01T04:41:10;10.30;99.90
9768;DHT22;4923;52.520;13.494;2023-04-01T04:43:57;10.30;99.90
9768;DHT22;4923;52.520;13.494;2023-04-01T04:46:44;10.40;19.90
9768;DHT22;4923;52.520;13.494;2023-04-01T04:49:31;10.30;50.40
9768;DHT22;4923;52.520;13.494;2023-04-01T04:52:18;10.20;7.90
9768;DHT22;4923;52.520;13.494;2023-04-01T04:55:06;10.30;1.00
9768;DHT22;4923;52.520;13.494;2023-04-01T04:57:54;10.30;99.90
9768;DHT22;4923;52.520;13.494;2023-04-01T05:00:41;10.30;1.00
9768;DHT22;4923;52.520;13.494;2023-04-01T05:03:28;10.30;99.90
9768;DHT22;4923;52.520;13.494;2023-04-01T05:06:15;10.30;1.00
9768;DHT22;4923;52.520;13.494;2023-04-01T05:09:03;10.30;99.90
9768;DHT22;4923;52.520;13.494;2023-04-01T05:11:50;10.30;1.00
9768;DHT22;4923;52.520;13.494;2023-04-01T05:14:39;10.40;99.90
9768;DHT22;4923;52.520;13.494;2023-04-01T05:17:25;10.40;99.90
9768;DHT22;4923;52.520;13.494;2023-04-01T05:20:13;10.50;99.90
9768;DHT22;4923;52.520;13.494;2023-04-01T05:23:00;10.50;1.00
9768;DHT22;4923;52.520;13.494;2023-04-01T05:25:47;10.60;1.00
9768;DHT22;4923;52.520;13.494;2023-04-01T05:28:34;10.60;1.00
9768;DHT22;4923;52.520;13.494;2023-04-01T05:31:22;10.60;1.00
9768;DHT22;4923;52.520;13.494;2023-04-01T05:34:10;10.60;1.00
9768;DHT22;4923;52.520;13.494;2023-04-01T05:36:57;10.60;99.90
9768;DHT22;4923;52.520;13.494;2023-04-01T05:39:43;10.60;99.90
9768;DHT22;4923;52.520;13.494;2023-04-01T05:42:30;10.60;1.00
9768;DHT22;4923;52.520;13.494;2023-04-01T05:45:17;10.50;44.30
9768;DHT22;4923;52.520;13.494;2023-04-01T05:48:05;10.50;99.90
9768;DHT22;4923;52.520;13.494;2023-04-01T05:50:52;10.50;1.00
9768;DHT22;4923;52.520;13.494;2023-04-01T05:53:39;10.50;1.00
9768;DHT22;4923;52.520;13.494;2023-04-01T05:56:26;10.50;1.00
9768;DHT22;4923;52.520;13.494;2023-04-01T05:59:13;10.50;99.90
9768;DHT22;4923;52.520;13.494;2023-04-01T06:02:00;10.60;10.50
9768;DHT22;4923;52.520;13.494;2023-04-01T06:04:48;10.60;1.00
9768;DHT22;4923;52.520;13.494;2023-04-01T06:07:35;10.60;26.30
9768;DHT22;4923;52.520;13.494;2023-04-01T06:10:25;10.70;99.90
9768;DHT22;4923;52.520;13.494;2023-04-01T06:13:26;10.60;99.90
9768;DHT22;4923;52.520;13.494;2023-04-01T06:16:23;10.70;1.00
9768;DHT22;4923;52.520;13.494;2023-04-01T06:19:36;10.70;38.90
9768;DHT22;4923;52.520;13.494;2023-04-01T06:22:42;10.80;1.00
9768;DHT22;4923;52.520;13.494;2023-04-01T06:25:58;10.90;1.00
9768;DHT22;4923;52.520;13.494;2023-04-01T06:32:21;11.10;1.00
9768;DHT22;4923;52.520;13.494;2023-04-01T06:35:40;11.10;99.90
9768;DHT22;4923;52.520;13.494;2023-04-01T06:38:41;11.10;99.90
9768;DHT22;4923;52.520;13.494;2023-04-01T06:41:56;11.20;16.70
9768;DHT22;4923;52.520;13.494;2023-04-01T06:44:56;11.20;1.00
9768;DHT22;4923;52.520;13.494;2023-04-01T06:47:57;11.20;1.00
9768;DHT22;4923;52.520;13.494;2023-04-01T06:50:53;11.20;99.90
9768;DHT22;4923;52.520;13.494;2023-04-01T06:53:49;11.30;1.00
9768;DHT22;4923;52.520;13.494;2023-04-01T06:56:41;11.30;1.00
9768;DHT22;4923;52.520;13.494;2023-04-01T06:59:30;11.30;1.00
9768;DHT22;4923;52.520;13.494;2023-04-01T07:02:24;11.30;1.00
9768;DHT22;4923;52.520;13.494;2023-04-01T07:05:13;11.30;69.50
9768;DHT22;4923;52.520;13.494;2023-04-01T07:08:04;11.30;99.90
9768;DHT22;4923;52.520;13.494;2023-04-01T07:10:55;11.30;1.00
9768;DHT22;4923;52.520;13.494;2023-04-01T07:13:49;11.30;99.90
9768;DHT22;4923;52.520;13.494;2023-04-01T07:16:40;11.40;1.00
9768;DHT22;4923;52.520;13.494;2023-04-01T07:19:30;11.30;1.00
9768;DHT22;4923;52.520;13.494;2023-04-01T07:22:24;11.40;1.00
9768;DHT22;4923;52.520;13.494;2023-04-01T07:25:15;11.40;90.80
9768;DHT22;4923;52.520;13.494;2023-04-01T07:28:06;11.50;31.70
9768;DHT22;4923;52.520;13.494;2023-04-01T07:31:05;11.50;99.90
9768;DHT22;4923;52.520;13.494;2023-04-01T07:34:01;11.60;99.90
9768;DHT22;4923;52.520;13.494;2023-04-01T07:36:56;11.50;1.00
9768;DHT22;4923;52.520;13.494;2023-04-01T07:39:51;11.60;1.00
9768;DHT22;4923;52.520;13.494;2023-04-01T07:42:51;11.70;1.00
9768;DHT22;4923;52.520;13.494;2023-04-01T07:45:48;11.70;99.90
9768;DHT22;4923;52.520;13.494;2023-04-01T07:48:43;11.60;1.00
9768;DHT22;4923;52.520;13.494;2023-04-01T07:51:38;11.60;1.00
9768;DHT22;4923;52.520;13.494;2023-04-01T07:54:33;11.50;99.90
9768;DHT22;4923;52.520;13.494;2023-04-01T07:57:30;11.60;99.90
9768;DHT22;4923;52.520;13.494;2023-04-01T08:00:22;11.50;99.90
9768;DHT22;4923;52.520;13.494;2023-04-01T08:03:31;11.50;99.90
9768;DHT22;4923;52.520;13.494;2023-04-01T08:06:24;11.50;1.00
9768;DHT22;4923;52.520;13.494;2023-04-01T08:09:18;11.50;1.00
9768;DHT22;4923;52.520;13.494;2023-04-01T08:12:15;11.20;1.00
9768;DHT22;4923;52.520;13.494;2023-04-01T08:15:11;10.90;1.00
9768;DHT22;4923;52.520;13.494;2023-04-01T08:18:06;10.70;1.00
9768;DHT22;4923;52.520;13.494;2023-04-01T08:20:58;10.50;1.00
9768;DHT22;4923;52.520;13.494;2023-04-01T08:23:49;10.30;1.00
9768;DHT22;4923;52.520;13.494;2023-04-01T08:26:40;10.10;99.90
9768;DHT22;4923;52.520;13.494;2023-04-01T08:29:35;10.00;1.00
9768;DHT22;4923;52.520;13.494;2023-04-01T08:32:27;10.00;99.90
9768;DHT22;4923;52.520;13.494;2023-04-01T08:35:20;10.00;1.00
9768;DHT22;4923;52.520;13.494;2023-04-01T08:38:13;9.90;99.90
9768;DHT22;4923;52.520;13.494;2023-04-01T08:41:28;9.90;80.90
9768;DHT22;4923;52.520;13.494;2023-04-01T08:44:57;9.80;1.00
9768;DHT22;4923;52.520;13.494;2023-04-01T08:47:55;9.80;48.70
9768;DHT22;4923;52.520;13.494;2023-04-01T08:54:46;9.70;1.00
9768;DHT22;4923;52.520;13.494;2023-04-01T08:57:44;9.70;99.90
9768;DHT22;4923;52.520;13.494;2023-04-01T09:00:34;9.80;90.80
9768;DHT22;4923;52.520;13.494;2023-04-01T09:03:41;9.90;1.00
9768;DHT22;4923;52.520;13.494;2023-04-01T09:06:50;10.00;99.90
9768;DHT22;4923;52.520;13.494;2023-04-01T09:10:00;10.00;1.00
9768;DHT22;4923;52.520;13.494;2023-04-01T09:13:08;9.90;1.00
9768;DHT22;4923;52.520;13.494;2023-04-01T09:16:09;10.00;1.00
9768;DHT22;4923;52.520;13.494;2023-04-01T09:19:11;9.90;1.00
9768;DHT22;4923;52.520;13.494;2023-04-01T09:22:31;10.00;99.90
9768;DHT22;4923;52.520;13.494;2023-04-01T09:25:38;9.90;1.00
9768;DHT22;4923;52.520;13.494;2023-04-01T09:28:39;9.90;1.00
9768;DHT22;4923;52.520;13.494;2023-04-01T09:35:06;9.90;1.00
9768;DHT22;4923;52.520;13.494;2023-04-01T09:37:58;9.80;99.90
9768;DHT22;4923;52.520;13.494;2023-04-01T09:40:55;9.90;1.00
9768;DHT22;4923;52.520;13.494;2023-04-01T09:44:00;9.90;1.00
9768;DHT22;4923;52.520;13.494;2023-04-01T09:46:59;10.00;1.00
9768;DHT22;4923;52.520;13.494;2023-04-01T09:50:14;10.00;1.00
9768;DHT22;4923;52.520;13.494;2023-04-01T09:53:12;10.00;1.00
9768;DHT22;4923;52.520;13.494;2023-04-01T09:59:49;9.80;1.00
9768;DHT22;4923;52.520;13.494;2023-04-01T10:03:22;10.10;1.00
9768;DHT22;4923;52.520;13.494;2023-04-01T10:06:51;10.10;1.00
9768;DHT22;4923;52.520;13.494;2023-04-01T10:10:16;10.10;1.00
9768;DHT22;4923;52.520;13.494;2023-04-01T10:13:28;9.90;99.90
9768;DHT22;4923;52.520;13.494;2023-04-01T10:16:42;9.80;1.00
9768;DHT22;4923;52.520;13.494;2023-04-01T10:23:17;9.60;99.90
9768;DHT22;4923;52.520;13.494;2023-04-01T10:30:13;9.80;1.00
9768;DHT22;4923;52.520;13.494;2023-04-01T10:33:33;9.40;1.00
9768;DHT22;4923;52.520;13.494;2023-04-01T10:36:50;9.50;1.00
9768;DHT22;4923;52.520;13.494;2023-04-01T10:40:05;9.60;1.00
9768;DHT22;4923;52.520;13.494;2023-04-01T10:43:52;9.60;1.00
9768;DHT22;4923;52.520;13.494;2023-04-01T10:47:08;9.60;99.90
9768;DHT22;4923;52.520;13.494;2023-04-01T10:50:36;9.60;1.00
9768;DHT22;4923;52.520;13.494;2023-04-01T10:53:40;9.50;1.00
9768;DHT22;4923;52.520;13.494;2023-04-01T10:56:42;9.50;99.90
9768;DHT22;4923;52.520;13.494;2023-04-01T10:59:52;9.50;1.00
9768;DHT22;4923;52.520;13.494;2023-04-01T11:03:09;9.60;1.00
9768;DHT22;4923;52.520;13.494;2023-04-01T11:06:37;9.70;1.00
9768;DHT22;4923;52.520;13.494;2023-04-01T11:10:15;9.70;1.00
9768;DHT22;4923;52.520;13.494;2023-04-01T11:17:05;9.60;99.90
9768;DHT22;4923;52.520;13.494;2023-04-01T11:23:45;9.70;1.00
9768;DHT22;4923;52.520;13.494;2023-04-01T11:26:45;9.60;1.00
9768;DHT22;4923;52.520;13.494;2023-04-01T11:29:52;9.50;10.10
9768;DHT22;4923;52.520;13.494;2023-04-01T11:32:52;9.60;99.90
9768;DHT22;4923;52.520;13.494;2023-04-01T11:35:59;9.80;99.90
9768;DHT22;4923;52.520;13.494;2023-04-01T11:39:11;9.40;1.00
9768;DHT22;4923;52.520;13.494;2023-04-01T11:42:17;9.40;1.00
9768;DHT22;4923;52.520;13.494;2023-04-01T11:45:15;9.60;99.90
9768;DHT22;4923;52.520;13.494;2023-04-01T11:48:19;9.60;99.90
9768;DHT22;4923;52.520;13.494;2023-04-01T11:55:02;9.70;99.90
9768;DHT22;4923;52.520;13.494;2023-04-01T11:58:08;9.50;99.90
9768;DHT22;4923;52.520;13.494;2023-04-01T12:01:13;9.40;99.90
9768;DHT22;4923;52.520;13.494;2023-04-01T12:04:23;9.30;1.00
9768;DHT22;4923;52.520;13.494;2023-04-01T12:07:21;9.20;1.00
9768;DHT22;4923;52.520;13.494;2023-04-01T12:10:17;9.20;1.00
9768;DHT22;4923;52.520;13.494;2023-04-01T12:13:16;9.30;1.00
9768;DHT22;4923;52.520;13.494;2023-04-01T12:16:21;9.30;1.00
9768;DHT22;4923;52.520;13.494;2023-04-01T12:19:20;9.20;1.00
9768;DHT22;4923;52.520;13.494;2023-04-01T12:22:23;9.10;99.90
9768;DHT22;4923;52.520;13.494;2023-04-01T12:25:27;9.10;99.90
9768;DHT22;4923;52.520;13.494;2023-04-01T12:28:25;8.80;99.90
9768;DHT22;4923;52.520;13.494;2023-04-01T12:31:27;9.00;99.90
9768;DHT22;4923;52.520;13.494;2023-04-01T12:34:49;9.00;1.00
9768;DHT22;4923;52.520;13.494;2023-04-01T12:37:50;9.10;99.90
9768;DHT22;4923;52.520;13.494;2023-04-01T12:40:54;8.90;1.00
9768;DHT22;4923;52.520;13.494;2023-04-01T12:44:03;9.00;1.00
9768;DHT22;4923;52.520;13.494;2023-04-01T12:47:14;8.90;99.90
9768;DHT22;4923;52.520;13.494;2023-04-01T12:53:23;8.90;1.00
9768;DHT22;4923;52.520;13.494;2023-04-01T12:56:23;9.00;1.00
9768;DHT22;4923;52.520;13.494;2023-04-01T12:59:24;9.00;99.90
9768;DHT22;4923;52.520;13.494;2023-04-01T13:02:24;8.90;99.90
9768;DHT22;4923;52.520;13.494;2023-04-01T13:05:21;8.80;1.00
9768;DHT22;4923;52.520;13.494;2023-04-01T13:08:24;8.70;1.00
9768;DHT22;4923;52.520;13.494;2023-04-01T13:11:21;8.70;1.00
9768;DHT22;4923;52.520;13.494;2023-04-01T13:17:38;8.50;1.00
9768;DHT22;4923;52.520;13.494;2023-04-01T13:20:40;8.60;1.00
9768;DHT22;4923;52.520;13.494;2023-04-01T13:23:37;8.70;99.90
9768;DHT22;4923;52.520;13.494;2023-04-01T13:26:29;8.70;1.00
9768;DHT22;4923;52.520;13.494;2023-04-01T13:29:23;8.60;99.90
9768;DHT22;4923;52.520;13.494;2023-04-01T13:32:20;8.60;1.00
9768;DHT22;4923;52.520;13.494;2023-04-01T13:35:20;8.50;1.00
9768;DHT22;4923;52.520;13.494;2023-04-01T13:38:37;8.60;1.00
9768;DHT22;4923;52.520;13.494;2023-04-01T13:41:45;8.60;99.90
9768;DHT22;4923;52.520;13.494;2023-04-01T13:44:39;8.70;19.20
9768;DHT22;4923;52.520;13.494;2023-04-01T13:50:58;8.50;1.00
9768;DHT22;4923;52.520;13.494;2023-04-01T13:54:09;8.50;99.90
9768;DHT22;4923;52.520;13.494;2023-04-01T13:57:14;8.60;1.00
9768;DHT22;4923;52.520;13.494;2023-04-01T14:00:15;8.40;1.00
9768;DHT22;4923;52.520;13.494;2023-04-01T14:03:14;8.50;1.00
9768;DHT22;4923;52.520;13.494;2023-04-01T14:06:13;8.60;1.00
9768;DHT22;4923;52.520;13.494;2023-04-01T14:09:16;8.50;1.00
9768;DHT22;4923;52.520;13.494;2023-04-01T14:12:13;8.30;99.90
9768;DHT22;4923;52.520;13.494;2023-04-01T14:15:25;8.20;1.00
9768;DHT22;4923;52.520;13.494;2023-04-01T14:18:37;8.30;1.00
9768;DHT22;4923;52.520;13.494;2023-04-01T14:21:38;8.40;99.90
9768;DHT22;4923;52.520;13.494;2023-04-01T14:27:43;8.20;1.00
9768;DHT22;4923;52.520;13.494;2023-04-01T14:30:45;8.00;99.90
9768;DHT22;4923;52.520;13.494;2023-04-01T14:33:45;8.00;99.90
9768;DHT22;4923;52.520;13.494;2023-04-01T14:36:41;8.10;1.00
9768;DHT22;4923;52.520;13.494;2023-04-01T14:39:43;8.10;1.00
9768;DHT22;4923;52.520;13.494;2023-04-01T14:43:14;8.00;1.00
9768;DHT22;4923;52.520;13.494;2023-04-01T14:46:23;7.90;1.00
9768;DHT22;4923;52.520;13.494;2023-04-01T14:49:17;7.90;1.00
9768;DHT22;4923;52.520;13.494;2023-04-01T14:52:13;7.90;1.00
9768;DHT22;4923;52.520;13.494;2023-04-01T14:55:10;7.90;99.90
9768;DHT22;4923;52.520;13.494;2023-04-01T14:58:12;7.80;99.90
9768;DHT22;4923;52.520;13.494;2023-04-01T15:01:11;7.80;1.00
9768;DHT22;4923;52.520;13.494;2023-04-01T15:04:15;7.90;99.90
9768;DHT22;4923;52.520;13.494;2023-04-01T15:07:18;7.70;99.90
9768;DHT22;4923;52.520;13.494;2023-04-01T15:10:27;7.70;1.00
9768;DHT22;4923;52.520;13.494;2023-04-01T15:13:31;7.70;1.00
9768;DHT22;4923;52.520;13.494;2023-04-01T15:16:25;7.70;1.00
9768;DHT22;4923;52.520;13.494;2023-04-01T15:19:19;7.60;1.00
9768;DHT22;4923;52.520;13.494;2023-04-01T15:22:44;7.60;1.00
9768;DHT22;4923;52.520;13.494;2023-04-01T15:26:04;7.40;99.90
9768;DHT22;4923;52.520;13.494;2023-04-01T15:29:09;7.40;1.00
9768;DHT22;4923;52.520;13.494;2023-04-01T15:32:02;7.30;1.00
9768;DHT22;4923;52.520;13.494;2023-04-01T15:34:59;7.30;1.00
9768;DHT22;4923;52.520;13.494;2023-04-01T15:37:58;7.20;1.00
9768;DHT22;4923;52.520;13.494;2023-04-01T15:40:53;7.30;1.00
9768;DHT22;4923;52.520;13.494;2023-04-01T15:43:45;7.20;1.00
9768;DHT22;4923;52.520;13.494;2023-04-01T15:46:43;7.20;1.00
9768;DHT22;4923;52.520;13.494;2023-04-01T15:49:34;7.20;1.00
9768;DHT22;4923;52.520;13.494;2023-04-01T15:52:24;7.30;99.90
9768;DHT22;4923;52.520;13.494;2023-04-01T15:55:25;7.30;99.90
9768;DHT22;4923;52.520;13.494;2023-04-01T15:58:33;7.30;1.00
9768;DHT22;4923;52.520;13.494;2023-04-01T16:01:31;7.20;1.00
9768;DHT22;4923;52.520;13.494;2023-04-01T16:04:47;7.30;1.00
9768;DHT22;4923;52.520;13.494;2023-04-01T16:07:48;7.10;1.00
9768;DHT22;4923;52.520;13.494;2023-04-01T16:10:48;6.90;1.00
9768;DHT22;4923;52.520;13.494;2023-04-01T16:13:52;7.00;99.90
9768;DHT22;4923;52.520;13.494;2023-04-01T16:16:51;7.00;1.00
9768;DHT22;4923;52.520;13.494;2023-04-01T16:19:51;6.90;99.90
9768;DHT22;4923;52.520;13.494;2023-04-01T16:22:44;6.80;99.90
9768;DHT22;4923;52.520;13.494;2023-04-01T16:25:36;6.90;1.00
9768;DHT22;4923;52.520;13.494;2023-04-01T16:28:29;6.80;1.00
9768;DHT22;4923;52.520;13.494;2023-04-01T16:31:29;6.80;99.90
9768;DHT22;4923;52.520;13.494;2023-04-01T16:34:21;6.70;1.00
9768;DHT22;4923;52.520;13.494;2023-04-01T16:37:15;6.70;1.00
9768;DHT22;4923;52.520;13.494;2023-04-01T16:40:13;6.60;1.00
9768;DHT22;4923;52.520;13.494;2023-04-01T16:43:10;6.60;1.00
9768;DHT22;4923;52.520;13.494;2023-04-01T16:46:15;6.70;99.90
9768;DHT22;4923;52.520;13.494;2023-04-01T16:49:24;6.50;99.90
9768;DHT22;4923;52.520;13.494;2023-04-01T16:52:35;6.50;1.00
9768;DHT22;4923;52.520;13.494;2023-04-01T16:55:33;6.50;42.60
9768;DHT22;4923;52.520;13.494;2023-04-01T16:58:24;6.50;1.00
9768;DHT22;4923;52.520;13.494;2023-04-01T17:01:14;6.40;41.50
9768;DHT22;4923;52.520;13.494;2023-04-01T17:04:07;6.40;99.90
9768;DHT22;4923;52.520;13.494;2023-04-01T17:07:05;6.40;99.90
9768;DHT22;4923;52.520;13.494;2023-04-01T17:10:22;6.30;1.00
9768;DHT22;4923;52.520;13.494;2023-04-01T17:13:23;6.20;1.00
9768;DHT22;4923;52.520;13.494;2023-04-01T17:19:42;6.10;99.90
9768;DHT22;4923;52.520;13.494;2023-04-01T17:22:36;6.10;1.00
9768;DHT22;4923;52.520;13.494;2023-04-01T17:25:56;6.00;1.00
9768;DHT22;4923;52.520;13.494;2023-04-01T17:28:52;6.00;1.00
9768;DHT22;4923;52.520;13.494;2023-04-01T17:31:46;6.00;1.00
9768;DHT22;4923;52.520;13.494;2023-04-01T17:34:45;5.90;1.00
9768;DHT22;4923;52.520;13.494;2023-04-01T17:37:45;5.90;1.00
9768;DHT22;4923;52.520;13.494;2023-04-01T17:40:46;5.80;1.00
9768;DHT22;4923;52.520;13.494;2023-04-01T17:43:44;5.70;1.00
9768;DHT22;4923;52.520;13.494;2023-04-01T17:46:40;5.70;1.00
9768;DHT22;4923;52.520;13.494;2023-04-01T17:49:35;5.60;1.00
9768;DHT22;4923;52.520;13.494;2023-04-01T17:52:28;5.60;1.00
9768;DHT22;4923;52.520;13.494;2023-04-01T17:55:42;5.60;1.00
9768;DHT22;4923;52.520;13.494;2023-04-01T17:58:35;5.60;1.00
9768;DHT22;4923;52.520;13.494;2023-04-01T18:01:44;5.50;99.90
9768;DHT22;4923;52.520;13.494;2023-04-01T18:05:14;5.50;99.90
9768;DHT22;4923;52.520;13.494;2023-04-01T18:08:12;5.50;1.00
9768;DHT22;4923;52.520;13.494;2023-04-01T18:11:11;5.50;1.00
9768;DHT22;4923;52.520;13.494;2023-04-01T18:14:13;5.50;99.70
9768;DHT22;4923;52.520;13.494;2023-04-01T18:17:23;5.50;99.90
9768;DHT22;4923;52.520;13.494;2023-04-01T18:20:33;5.50;1.00
9768;DHT22;4923;52.520;13.494;2023-04-01T18:23:29;5.40;99.90
9768;DHT22;4923;52.520;13.494;2023-04-01T18:26:22;5.40;99.90
9768;DHT22;4923;52.520;13.494;2023-04-01T18:29:13;5.30;99.90
9768;DHT22;4923;52.520;13.494;2023-04-01T18:32:13;5.30;99.90
9768;DHT22;4923;52.520;13.494;2023-04-01T18:35:16;5.30;1.00
9768;DHT22;4923;52.520;13.494;2023-04-01T18:38:11;5.30;99.90
9768;DHT22;4923;52.520;13.494;2023-04-01T18:41:10;5.20;99.90
9768;DHT22;4923;52.520;13.494;2023-04-01T18:44:05;5.20;99.90
9768;DHT22;4923;52.520;13.494;2023-04-01T18:47:05;5.20;92.60
9768;DHT22;4923;52.520;13.494;2023-04-01T18:50:00;5.20;1.00
9768;DHT22;4923;52.520;13.494;2023-04-01T18:52:53;5.20;1.00
9768;DHT22;4923;52.520;13.494;2023-04-01T18:55:48;5.20;1.00
9768;DHT22;4923;52.520;13.494;2023-04-01T18:58:46;5.20;1.00
9768;DHT22;4923;52.520;13.494;2023-04-01T19:01:39;5.20;1.00
9768;DHT22;4923;52.520;13.494;2023-04-01T19:04:32;5.20;11.70
9768;DHT22;4923;52.520;13.494;2023-04-01T19:07:45;5.10;5.70
9768;DHT22;4923;52.520;13.494;2023-04-01T19:10:39;5.10;99.90
9768;DHT22;4923;52.520;13.494;2023-04-01T19:13:30;5.10;1.00
9768;DHT22;4923;52.520;13.494;2023-04-01T19:16:28;5.10;1.00
9768;DHT22;4923;52.520;13.494;2023-04-01T19:19:33;5.00;1.00
9768;DHT22;4923;52.520;13.494;2023-04-01T19:22:35;5.00;99.90
9768;DHT22;4923;52.520;13.494;2023-04-01T19:25:37;5.00;1.00
9768;DHT22;4923;52.520;13.494;2023-04-01T19:28:37;5.00;1.00
9768;DHT22;4923;52.520;13.494;2023-04-01T19:31:41;5.00;1.00
9768;DHT22;4923;52.520;13.494;2023-04-01T19:34:40;5.00;99.90
9768;DHT22;4923;52.520;13.494;2023-04-01T19:37:33;4.90;1.00
9768;DHT22;4923;52.520;13.494;2023-04-01T19:40:43;4.80;1.00
9768;DHT22;4923;52.520;13.494;2023-04-01T19:43:44;4.80;1.00
9768;DHT22;4923;52.520;13.494;2023-04-01T19:46:35;4.80;99.90
9768;DHT22;4923;52.520;13.494;2023-04-01T19:49:36;4.90;99.90
9768;DHT22;4923;52.520;13.494;2023-04-01T19:52:31;4.80;1.00
9768;DHT22;4923;52.520;13.494;2023-04-01T19:55:30;4.80;1.00
9768;DHT22;4923;52.520;13.494;2023-04-01T19:58:24;4.80;99.90
9768;DHT22;4923;52.520;13.494;2023-04-01T20:01:17;4.70;99.90
9768;DHT22;4923;52.520;13.494;2023-04-01T20:04:11;4.70;1.00
9768;DHT22;4923;52.520;13.494;2023-04-01T20:07:04;4.70;1.00
9768;DHT22;4923;52.520;13.494;2023-04-01T20:09:59;4.70;99.90